sensor_id;sensor_type;location;lat;lon;timestamp;temperature;humidity
35085;SHT85;21267;51.032;6.998;2023-08-06T00:01:41;15.77;90.12
35085;SHT85;21267;51.032;6.998;2023-08-06T00:04:12;15.74;90.58
35085;SHT85;21267;51.032;6.998;2023-08-06T00:06:49;15.69;90.69
35085;SHT85;21267;51.032;6.998;2023-08-06T00:09:16;15.69;90.95
35085;SHT85;21267;51.032;6.998;2023-08-06T00:11:46;15.60;91.04
35085;SHT85;21267;51.032;6.998;2023-08-06T00:14:20;15.54;91.10
35085;SHT85;21267;51.032;6.998;2023-08-06T00:16:46;15.53;91.30
35085;SHT85;21267;51.032;6.998;2023-08-06T00:19:13;15.40;91.58
35085;SHT85;21267;51.032;6.998;2023-08-06T00:21:40;15.36;91.84
35085;SHT85;21267;51.032;6.998;2023-08-06T00:24:07;15.31;92.03
35085;SHT85;21267;51.032;6.998;2023-08-06T00:26:34;15.28;92.14
35085;SHT85;21267;51.032;6.998;2023-08-06T00:29:01;15.24;92.25
35085;SHT85;21267;51.032;6.998;2023-08-06T00:31:27;15.16;92.50
35085;SHT85;21267;51.032;6.998;2023-08-06T00:33:54;15.18;92.48
35085;SHT85;21267;51.032;6.998;2023-08-06T00:36:21;15.16;92.44
35085;SHT85;21267;51.032;6.998;2023-08-06T00:38:48;15.06;92.73
35085;SHT85;21267;51.032;6.998;2023-08-06T00:41:14;15.06;92.68
35085;SHT85;21267;51.032;6.998;2023-08-06T00:43:41;15.06;92.83
35085;SHT85;21267;51.032;6.998;2023-08-06T00:46:08;14.98;93.15
35085;SHT85;21267;51.032;6.998;2023-08-06T00:48:35;14.95;93.26
35085;SHT85;21267;51.032;6.998;2023-08-06T00:51:02;14.92;93.28
35085;SHT85;21267;51.032;6.998;2023-08-06T00:53:29;14.91;93.29
35085;SHT85;21267;51.032;6.998;2023-08-06T00:55:55;14.88;93.36
35085;SHT85;21267;51.032;6.998;2023-08-06T00:58:22;14.91;93.55
35085;SHT85;21267;51.032;6.998;2023-08-06T01:00:49;14.88;93.60
35085;SHT85;21267;51.032;6.998;2023-08-06T01:03:17;14.88;93.69
35085;SHT85;21267;51.032;6.998;2023-08-06T01:05:44;14.87;93.78
35085;SHT85;21267;51.032;6.998;2023-08-06T01:08:28;14.83;93.82
35085;SHT85;21267;51.032;6.998;2023-08-06T01:11:33;14.89;93.71
35085;SHT85;21267;51.032;6.998;2023-08-06T01:14:28;14.87;93.86
35085;SHT85;21267;51.032;6.998;2023-08-06T01:16:58;14.92;93.56
35085;SHT85;21267;51.032;6.998;2023-08-06T01:19:25;14.91;93.47
35085;SHT85;21267;51.032;6.998;2023-08-06T01:21:51;14.88;93.72
35085;SHT85;21267;51.032;6.998;2023-08-06T01:24:19;14.92;93.75
35085;SHT85;21267;51.032;6.998;2023-08-06T01:26:53;14.88;93.84
35085;SHT85;21267;51.032;6.998;2023-08-06T01:30:24;14.94;93.79
35085;SHT85;21267;51.032;6.998;2023-08-06T01:32:32;14.91;93.79
35085;SHT85;21267;51.032;6.998;2023-08-06T01:35:02;14.88;93.80
35085;SHT85;21267;51.032;6.998;2023-08-06T01:37:31;14.81;93.98
35085;SHT85;21267;51.032;6.998;2023-08-06T01:39:58;14.81;94.10
35085;SHT85;21267;51.032;6.998;2023-08-06T01:42:24;14.77;94.32
35085;SHT85;21267;51.032;6.998;2023-08-06T01:44:51;14.78;94.24
35085;SHT85;21267;51.032;6.998;2023-08-06T01:47:18;14.74;94.46
35085;SHT85;21267;51.032;6.998;2023-08-06T01:49:46;14.75;94.59
35085;SHT85;21267;51.032;6.998;2023-08-06T01:52:13;14.71;94.70
35085;SHT85;21267;51.032;6.998;2023-08-06T01:54:40;14.66;94.80
35085;SHT85;21267;51.032;6.998;2023-08-06T01:57:06;14.66;94.90
35085;SHT85;21267;51.032;6.998;2023-08-06T01:59:33;14.59;95.16
35085;SHT85;21267;51.032;6.998;2023-08-06T02:02:00;14.59;95.23
35085;SHT85;21267;51.032;6.998;2023-08-06T02:04:27;14.56;95.24
35085;SHT85;21267;51.032;6.998;2023-08-06T02:06:53;14.54;95.37
35085;SHT85;21267;51.032;6.998;2023-08-06T02:09:20;14.49;95.52
35085;SHT85;21267;51.032;6.998;2023-08-06T02:11:50;14.53;95.50
35085;SHT85;21267;51.032;6.998;2023-08-06T02:14:17;14.49;95.50
35085;SHT85;21267;51.032;6.998;2023-08-06T02:16:43;14.52;95.51
35085;SHT85;21267;51.032;6.998;2023-08-06T02:19:10;14.56;95.54
35085;SHT85;21267;51.032;6.998;2023-08-06T02:21:37;14.53;95.55
35085;SHT85;21267;51.032;6.998;2023-08-06T02:24:04;14.54;95.60
35085;SHT85;21267;51.032;6.998;2023-08-06T02:26:31;14.56;95.42
35085;SHT85;21267;51.032;6.998;2023-08-06T02:28:57;14.66;95.24
35085;SHT85;21267;51.032;6.998;2023-08-06T02:31:24;14.70;95.12
35085;SHT85;21267;51.032;6.998;2023-08-06T02:33:51;14.63;95.26
35085;SHT85;21267;51.032;6.998;2023-08-06T02:36:18;14.66;95.20
35085;SHT85;21267;51.032;6.998;2023-08-06T02:38:45;14.68;95.16
35085;SHT85;21267;51.032;6.998;2023-08-06T02:41:12;14.80;94.86
35085;SHT85;21267;51.032;6.998;2023-08-06T02:43:39;14.77;94.66
35085;SHT85;21267;51.032;6.998;2023-08-06T02:46:05;14.78;94.74
35085;SHT85;21267;51.032;6.998;2023-08-06T02:48:32;14.85;94.46
35085;SHT85;21267;51.032;6.998;2023-08-06T02:50:59;14.84;94.43
35085;SHT85;21267;51.032;6.998;2023-08-06T02:53:26;14.91;94.14
35085;SHT85;21267;51.032;6.998;2023-08-06T02:55:53;14.96;93.76
35085;SHT85;21267;51.032;6.998;2023-08-06T02:58:21;14.98;93.81
35085;SHT85;21267;51.032;6.998;2023-08-06T03:01:01;14.96;93.73
35085;SHT85;21267;51.032;6.998;2023-08-06T03:03:30;14.96;93.67
35085;SHT85;21267;51.032;6.998;2023-08-06T03:05:57;15.01;93.41
35085;SHT85;21267;51.032;6.998;2023-08-06T03:08:24;14.98;93.41
35085;SHT85;21267;51.032;6.998;2023-08-06T03:10:51;15.06;93.04
35085;SHT85;21267;51.032;6.998;2023-08-06T03:13:19;15.06;92.91
35085;SHT85;21267;51.032;6.998;2023-08-06T03:15:56;15.06;92.91
35085;SHT85;21267;51.032;6.998;2023-08-06T03:18:23;15.06;92.97
35085;SHT85;21267;51.032;6.998;2023-08-06T03:20:50;15.11;93.11
35085;SHT85;21267;51.032;6.998;2023-08-06T03:23:17;15.09;93.14
35085;SHT85;21267;51.032;6.998;2023-08-06T03:25:44;15.12;92.99
35085;SHT85;21267;51.032;6.998;2023-08-06T03:28:11;15.14;92.85
35085;SHT85;21267;51.032;6.998;2023-08-06T03:30:37;15.18;92.91
35085;SHT85;21267;51.032;6.998;2023-08-06T03:33:04;15.15;93.09
35085;SHT85;21267;51.032;6.998;2023-08-06T03:35:31;15.21;93.14
35085;SHT85;21267;51.032;6.998;2023-08-06T03:37:58;15.21;93.06
35085;SHT85;21267;51.032;6.998;2023-08-06T03:40:24;15.25;92.66
35085;SHT85;21267;51.032;6.998;2023-08-06T03:42:51;15.18;93.09
35085;SHT85;21267;51.032;6.998;2023-08-06T03:45:18;15.05;93.98
35085;SHT85;21267;51.032;6.998;2023-08-06T03:47:45;14.98;94.59
35085;SHT85;21267;51.032;6.998;2023-08-06T03:50:12;14.88;95.18
35085;SHT85;21267;51.032;6.998;2023-08-06T03:52:40;14.85;95.47
35085;SHT85;21267;51.032;6.998;2023-08-06T03:55:07;14.75;95.69
35085;SHT85;21267;51.032;6.998;2023-08-06T03:57:36;14.77;95.88
35085;SHT85;21267;51.032;6.998;2023-08-06T04:00:03;14.75;95.80
35085;SHT85;21267;51.032;6.998;2023-08-06T04:02:37;14.75;96.00
35085;SHT85;21267;51.032;6.998;2023-08-06T04:05:19;14.73;95.98
35085;SHT85;21267;51.032;6.998;2023-08-06T04:07:45;14.73;96.18
35085;SHT85;21267;51.032;6.998;2023-08-06T04:10:26;14.70;96.14
35085;SHT85;21267;51.032;6.998;2023-08-06T04:12:53;14.71;96.31
35085;SHT85;21267;51.032;6.998;2023-08-06T04:15:20;14.71;96.42
35085;SHT85;21267;51.032;6.998;2023-08-06T04:17:54;14.70;96.55
35085;SHT85;21267;51.032;6.998;2023-08-06T04:20:23;14.68;96.80
35085;SHT85;21267;51.032;6.998;2023-08-06T04:22:54;14.60;97.01
35085;SHT85;21267;51.032;6.998;2023-08-06T04:25:21;14.54;97.27
35085;SHT85;21267;51.032;6.998;2023-08-06T04:27:48;14.53;97.47
35085;SHT85;21267;51.032;6.998;2023-08-06T04:30:17;14.50;97.51
35085;SHT85;21267;51.032;6.998;2023-08-06T04:32:44;14.53;97.65
35085;SHT85;21267;51.032;6.998;2023-08-06T04:35:10;14.50;97.75
35085;SHT85;21267;51.032;6.998;2023-08-06T04:37:37;14.53;97.87
35085;SHT85;21267;51.032;6.998;2023-08-06T04:40:05;14.56;98.00
35085;SHT85;21267;51.032;6.998;2023-08-06T04:42:32;14.52;97.99
35085;SHT85;21267;51.032;6.998;2023-08-06T04:45:01;14.59;98.09
35085;SHT85;21267;51.032;6.998;2023-08-06T04:47:28;14.61;98.05
35085;SHT85;21267;51.032;6.998;2023-08-06T04:49:55;14.70;97.96
35085;SHT85;21267;51.032;6.998;2023-08-06T04:52:25;14.64;97.91
35085;SHT85;21267;51.032;6.998;2023-08-06T04:54:56;14.64;97.85
35085;SHT85;21267;51.032;6.998;2023-08-06T04:57:23;14.64;97.81
35085;SHT85;21267;51.032;6.998;2023-08-06T04:59:50;14.67;97.74
35085;SHT85;21267;51.032;6.998;2023-08-06T05:02:16;14.67;97.73
35085;SHT85;21267;51.032;6.998;2023-08-06T05:04:43;14.71;97.76
35085;SHT85;21267;51.032;6.998;2023-08-06T05:07:10;14.74;97.94
35085;SHT85;21267;51.032;6.998;2023-08-06T05:09:38;14.66;98.01
35085;SHT85;21267;51.032;6.998;2023-08-06T05:12:06;14.77;98.11
35085;SHT85;21267;51.032;6.998;2023-08-06T05:14:33;14.81;98.16
35085;SHT85;21267;51.032;6.998;2023-08-06T05:17:15;14.81;97.99
35085;SHT85;21267;51.032;6.998;2023-08-06T05:19:42;14.71;97.85
35085;SHT85;21267;51.032;6.998;2023-08-06T05:22:09;14.80;97.91
35085;SHT85;21267;51.032;6.998;2023-08-06T05:24:36;14.84;97.96
35085;SHT85;21267;51.032;6.998;2023-08-06T05:27:02;14.89;97.81
35085;SHT85;21267;51.032;6.998;2023-08-06T05:29:45;14.94;97.62
35085;SHT85;21267;51.032;6.998;2023-08-06T05:32:14;14.96;97.47
35085;SHT85;21267;51.032;6.998;2023-08-06T05:34:54;14.91;97.27
35085;SHT85;21267;51.032;6.998;2023-08-06T05:37:22;15.05;97.16
35085;SHT85;21267;51.032;6.998;2023-08-06T05:39:49;15.05;97.00
35085;SHT85;21267;51.032;6.998;2023-08-06T05:42:30;15.14;97.15
35085;SHT85;21267;51.032;6.998;2023-08-06T05:44:58;15.25;96.99
35085;SHT85;21267;51.032;6.998;2023-08-06T05:47:26;15.33;96.64
35085;SHT85;21267;51.032;6.998;2023-08-06T05:49:53;15.46;96.23
35085;SHT85;21267;51.032;6.998;2023-08-06T05:52:20;15.39;95.95
35085;SHT85;21267;51.032;6.998;2023-08-06T05:54:50;15.38;96.28
35085;SHT85;21267;51.032;6.998;2023-08-06T05:57:17;15.39;96.06
35085;SHT85;21267;51.032;6.998;2023-08-06T05:59:52;15.45;95.94
35085;SHT85;21267;51.032;6.998;2023-08-06T06:02:19;15.46;95.87
35085;SHT85;21267;51.032;6.998;2023-08-06T06:04:46;15.49;96.07
35085;SHT85;21267;51.032;6.998;2023-08-06T06:07:14;15.53;96.18
35085;SHT85;21267;51.032;6.998;2023-08-06T06:09:41;15.47;95.98
35085;SHT85;21267;51.032;6.998;2023-08-06T06:12:10;15.47;95.81
35085;SHT85;21267;51.032;6.998;2023-08-06T06:14:39;15.52;95.85
35085;SHT85;21267;51.032;6.998;2023-08-06T06:17:05;15.52;95.48
35085;SHT85;21267;51.032;6.998;2023-08-06T06:19:32;15.73;95.47
35085;SHT85;21267;51.032;6.998;2023-08-06T06:22:00;15.52;95.16
35085;SHT85;21267;51.032;6.998;2023-08-06T06:24:26;15.54;94.86
35085;SHT85;21267;51.032;6.998;2023-08-06T06:26:53;15.62;95.35
35085;SHT85;21267;51.032;6.998;2023-08-06T06:33:46;15.83;94.96
35085;SHT85;21267;51.032;6.998;2023-08-06T06:36:14;15.84;94.63
35085;SHT85;21267;51.032;6.998;2023-08-06T06:38:48;15.86;94.72
35085;SHT85;21267;51.032;6.998;2023-08-06T06:41:19;15.78;94.50
35085;SHT85;21267;51.032;6.998;2023-08-06T06:44:00;15.71;94.27
35085;SHT85;21267;51.032;6.998;2023-08-06T06:46:26;15.71;94.77
35085;SHT85;21267;51.032;6.998;2023-08-06T06:48:53;15.87;95.02
35085;SHT85;21267;51.032;6.998;2023-08-06T06:51:27;15.80;94.86
35085;SHT85;21267;51.032;6.998;2023-08-06T06:53:59;15.91;94.56
35085;SHT85;21267;51.032;6.998;2023-08-06T06:56:40;16.05;94.57
35085;SHT85;21267;51.032;6.998;2023-08-06T06:59:09;15.98;94.09
35085;SHT85;21267;51.032;6.998;2023-08-06T07:01:51;16.07;94.72
35085;SHT85;21267;51.032;6.998;2023-08-06T07:04:21;16.00;94.40
35085;SHT85;21267;51.032;6.998;2023-08-06T07:07:02;16.17;94.92
35085;SHT85;21267;51.032;6.998;2023-08-06T07:09:31;16.25;94.22
35085;SHT85;21267;51.032;6.998;2023-08-06T07:12:11;16.11;94.35
35085;SHT85;21267;51.032;6.998;2023-08-06T07:14:40;16.01;94.11
35085;SHT85;21267;51.032;6.998;2023-08-06T07:17:21;16.10;95.08
35085;SHT85;21267;51.032;6.998;2023-08-06T07:19:47;16.14;95.02
35085;SHT85;21267;51.032;6.998;2023-08-06T07:22:14;16.25;94.60
35085;SHT85;21267;51.032;6.998;2023-08-06T07:24:41;16.24;94.07
35085;SHT85;21267;51.032;6.998;2023-08-06T07:27:08;16.38;93.62
35085;SHT85;21267;51.032;6.998;2023-08-06T07:29:38;16.35;94.51
35085;SHT85;21267;51.032;6.998;2023-08-06T07:32:08;16.55;94.14
35085;SHT85;21267;51.032;6.998;2023-08-06T07:34:49;16.52;93.71
35085;SHT85;21267;51.032;6.998;2023-08-06T07:37:16;16.48;93.44
35085;SHT85;21267;51.032;6.998;2023-08-06T07:39:57;16.53;93.38
35085;SHT85;21267;51.032;6.998;2023-08-06T07:42:25;16.49;93.31
35085;SHT85;21267;51.032;6.998;2023-08-06T07:45:08;16.53;93.54
35085;SHT85;21267;51.032;6.998;2023-08-06T07:47:36;16.55;93.24
35085;SHT85;21267;51.032;6.998;2023-08-06T07:50:18;16.48;92.70
35085;SHT85;21267;51.032;6.998;2023-08-06T07:52:48;16.39;92.52
35085;SHT85;21267;51.032;6.998;2023-08-06T07:55:28;16.48;92.95
35085;SHT85;21267;51.032;6.998;2023-08-06T07:57:55;16.56;93.36
35085;SHT85;21267;51.032;6.998;2023-08-06T08:00:24;16.58;92.28
35085;SHT85;21267;51.032;6.998;2023-08-06T08:03:00;16.75;92.57
35085;SHT85;21267;51.032;6.998;2023-08-06T08:05:26;16.84;92.33
35085;SHT85;21267;51.032;6.998;2023-08-06T08:08:07;16.89;91.58
35085;SHT85;21267;51.032;6.998;2023-08-06T08:10:35;16.87;92.30
35085;SHT85;21267;51.032;6.998;2023-08-06T08:13:02;17.03;92.05
35085;SHT85;21267;51.032;6.998;2023-08-06T08:15:40;17.08;91.65
35085;SHT85;21267;51.032;6.998;2023-08-06T08:18:07;16.96;90.74
35085;SHT85;21267;51.032;6.998;2023-08-06T08:20:48;17.17;89.32
35085;SHT85;21267;51.032;6.998;2023-08-06T08:23:14;17.04;89.52
35085;SHT85;21267;51.032;6.998;2023-08-06T08:25:43;17.07;89.61
35085;SHT85;21267;51.032;6.998;2023-08-06T08:28:10;17.04;89.73
35085;SHT85;21267;51.032;6.998;2023-08-06T08:30:37;16.82;90.90
35085;SHT85;21267;51.032;6.998;2023-08-06T08:33:04;16.62;92.01
35085;SHT85;21267;51.032;6.998;2023-08-06T08:35:45;16.66;92.59
35085;SHT85;21267;51.032;6.998;2023-08-06T08:38:12;16.46;93.09
35085;SHT85;21267;51.032;6.998;2023-08-06T08:40:53;16.53;94.10
35085;SHT85;21267;51.032;6.998;2023-08-06T08:43:24;16.68;94.21
35085;SHT85;21267;51.032;6.998;2023-08-06T08:46:05;16.80;93.75
35085;SHT85;21267;51.032;6.998;2023-08-06T08:48:33;16.97;93.28
35085;SHT85;21267;51.032;6.998;2023-08-06T08:51:15;16.86;92.92
35085;SHT85;21267;51.032;6.998;2023-08-06T08:53:44;17.18;92.66
35085;SHT85;21267;51.032;6.998;2023-08-06T08:56:24;17.21;92.19
35085;SHT85;21267;51.032;6.998;2023-08-06T08:58:51;17.40;91.30
35085;SHT85;21267;51.032;6.998;2023-08-06T09:01:33;17.35;91.64
35085;SHT85;21267;51.032;6.998;2023-08-06T09:04:02;17.20;92.20
35085;SHT85;21267;51.032;6.998;2023-08-06T09:06:51;17.32;92.73
35085;SHT85;21267;51.032;6.998;2023-08-06T09:09:34;17.15;92.49
35085;SHT85;21267;51.032;6.998;2023-08-06T09:12:16;17.11;93.07
35085;SHT85;21267;51.032;6.998;2023-08-06T09:14:44;17.11;93.05
35085;SHT85;21267;51.032;6.998;2023-08-06T09:17:27;16.96;93.69
35085;SHT85;21267;51.032;6.998;2023-08-06T09:20:11;17.00;93.49
35085;SHT85;21267;51.032;6.998;2023-08-06T09:22:41;16.93;92.71
35085;SHT85;21267;51.032;6.998;2023-08-06T09:25:23;16.94;92.56
35085;SHT85;21267;51.032;6.998;2023-08-06T09:27:52;17.03;92.85
35085;SHT85;21267;51.032;6.998;2023-08-06T09:30:36;17.14;92.33
35085;SHT85;21267;51.032;6.998;2023-08-06T09:33:03;17.32;91.76
35085;SHT85;21267;51.032;6.998;2023-08-06T09:35:31;17.48;91.00
35085;SHT85;21267;51.032;6.998;2023-08-06T09:38:16;17.71;90.71
35085;SHT85;21267;51.032;6.998;2023-08-06T09:40:48;17.73;89.28
35085;SHT85;21267;51.032;6.998;2023-08-06T09:43:23;18.52;87.73
35085;SHT85;21267;51.032;6.998;2023-08-06T09:45:51;19.57;84.59
35085;SHT85;21267;51.032;6.998;2023-08-06T09:48:33;19.73;83.20
35085;SHT85;21267;51.032;6.998;2023-08-06T09:51:14;19.36;81.67
35085;SHT85;21267;51.032;6.998;2023-08-06T09:53:52;19.57;83.08
35085;SHT85;21267;51.032;6.998;2023-08-06T09:56:38;19.88;81.80
35085;SHT85;21267;51.032;6.998;2023-08-06T09:59:10;20.55;80.09
35085;SHT85;21267;51.032;6.998;2023-08-06T10:01:54;20.45;80.96
35085;SHT85;21267;51.032;6.998;2023-08-06T10:04:39;20.28;79.48
35085;SHT85;21267;51.032;6.998;2023-08-06T10:07:08;18.99;81.89
35085;SHT85;21267;51.032;6.998;2023-08-06T10:09:49;18.20;86.47
35085;SHT85;21267;51.032;6.998;2023-08-06T10:12:16;17.47;88.40
35085;SHT85;21267;51.032;6.998;2023-08-06T10:14:46;16.52;91.85
35085;SHT85;21267;51.032;6.998;2023-08-06T10:17:15;16.18;92.94
35085;SHT85;21267;51.032;6.998;2023-08-06T10:19:43;15.94;93.78
35085;SHT85;21267;51.032;6.998;2023-08-06T10:22:16;15.73;94.06
35085;SHT85;21267;51.032;6.998;2023-08-06T10:24:58;15.76;94.45
35085;SHT85;21267;51.032;6.998;2023-08-06T10:33:01;15.63;96.18
35085;SHT85;21267;51.032;6.998;2023-08-06T10:35:45;15.60;96.19
35085;SHT85;21267;51.032;6.998;2023-08-06T10:38:19;15.76;96.42
35085;SHT85;21267;51.032;6.998;2023-08-06T10:43:36;15.46;96.17
35085;SHT85;21267;51.032;6.998;2023-08-06T10:46:12;15.39;96.44
35085;SHT85;21267;51.032;6.998;2023-08-06T10:49:00;15.28;96.25
35085;SHT85;21267;51.032;6.998;2023-08-06T10:51:30;15.21;96.33
35085;SHT85;21267;51.032;6.998;2023-08-06T10:54:05;15.21;96.18
35085;SHT85;21267;51.032;6.998;2023-08-06T10:56:39;15.12;95.98
35085;SHT85;21267;51.032;6.998;2023-08-06T10:59:21;15.09;96.28
35085;SHT85;21267;51.032;6.998;2023-08-06T11:01:48;15.06;96.05
35085;SHT85;21267;51.032;6.998;2023-08-06T11:04:30;15.06;95.99
35085;SHT85;21267;51.032;6.998;2023-08-06T11:06:57;14.91;95.83
35085;SHT85;21267;51.032;6.998;2023-08-06T11:09:38;14.85;96.17
35085;SHT85;21267;51.032;6.998;2023-08-06T11:12:11;14.84;96.33
35085;SHT85;21267;51.032;6.998;2023-08-06T11:14:52;14.77;96.28
35085;SHT85;21267;51.032;6.998;2023-08-06T11:17:19;14.73;96.39
35085;SHT85;21267;51.032;6.998;2023-08-06T11:20:01;14.66;96.68
35085;SHT85;21267;51.032;6.998;2023-08-06T11:22:28;14.63;96.89
35085;SHT85;21267;51.032;6.998;2023-08-06T11:25:09;14.53;96.37
35085;SHT85;21267;51.032;6.998;2023-08-06T11:27:35;14.49;96.66
35085;SHT85;21267;51.032;6.998;2023-08-06T11:30:02;14.47;96.74
35085;SHT85;21267;51.032;6.998;2023-08-06T11:32:30;14.54;96.76
35085;SHT85;21267;51.032;6.998;2023-08-06T11:34:57;14.53;96.92
35085;SHT85;21267;51.032;6.998;2023-08-06T11:37:32;14.54;97.03
35085;SHT85;21267;51.032;6.998;2023-08-06T11:40:00;14.40;96.44
35085;SHT85;21267;51.032;6.998;2023-08-06T11:42:30;14.43;96.43
35085;SHT85;21267;51.032;6.998;2023-08-06T11:45:11;14.41;96.28
35085;SHT85;21267;51.032;6.998;2023-08-06T11:47:39;14.50;96.39
35085;SHT85;21267;51.032;6.998;2023-08-06T11:50:27;14.54;96.02
35085;SHT85;21267;51.032;6.998;2023-08-06T11:52:59;14.63;96.29
35085;SHT85;21267;51.032;6.998;2023-08-06T11:55:28;14.64;95.81
35085;SHT85;21267;51.032;6.998;2023-08-06T11:57:55;14.73;95.89
35085;SHT85;21267;51.032;6.998;2023-08-06T12:00:24;14.78;95.62
35085;SHT85;21267;51.032;6.998;2023-08-06T12:02:59;14.78;94.94
35085;SHT85;21267;51.032;6.998;2023-08-06T12:05:30;14.87;95.08
35085;SHT85;21267;51.032;6.998;2023-08-06T12:10:54;14.96;94.85
35085;SHT85;21267;51.032;6.998;2023-08-06T12:13:25;14.99;94.58
35085;SHT85;21267;51.032;6.998;2023-08-06T12:15:53;14.98;94.33
35085;SHT85;21267;51.032;6.998;2023-08-06T12:18:20;15.02;94.42
35085;SHT85;21267;51.032;6.998;2023-08-06T12:20:47;15.08;94.02
35085;SHT85;21267;51.032;6.998;2023-08-06T12:23:14;15.16;94.03
35085;SHT85;21267;51.032;6.998;2023-08-06T12:25:41;15.16;93.51
35085;SHT85;21267;51.032;6.998;2023-08-06T12:28:22;15.21;93.25
35085;SHT85;21267;51.032;6.998;2023-08-06T12:30:49;15.33;93.05
35085;SHT85;21267;51.032;6.998;2023-08-06T12:33:17;15.35;92.51
35085;SHT85;21267;51.032;6.998;2023-08-06T12:35:57;15.43;92.57
35085;SHT85;21267;51.032;6.998;2023-08-06T12:38:24;15.45;92.81
35085;SHT85;21267;51.032;6.998;2023-08-06T12:40:51;15.49;92.39
35085;SHT85;21267;51.032;6.998;2023-08-06T12:43:32;15.57;92.43
35085;SHT85;21267;51.032;6.998;2023-08-06T12:46:01;15.57;91.81
35085;SHT85;21267;51.032;6.998;2023-08-06T12:48:35;15.64;91.98
35085;SHT85;21267;51.032;6.998;2023-08-06T12:51:02;15.66;91.13
35085;SHT85;21267;51.032;6.998;2023-08-06T12:53:29;15.67;90.64
35085;SHT85;21267;51.032;6.998;2023-08-06T12:56:09;15.70;90.11
35085;SHT85;21267;51.032;6.998;2023-08-06T12:58:38;15.80;89.70
35085;SHT85;21267;51.032;6.998;2023-08-06T13:01:20;15.73;90.13
35085;SHT85;21267;51.032;6.998;2023-08-06T13:03:46;15.76;90.15
35085;SHT85;21267;51.032;6.998;2023-08-06T13:06:27;15.69;89.95
35085;SHT85;21267;51.032;6.998;2023-08-06T13:08:54;15.77;90.11
35085;SHT85;21267;51.032;6.998;2023-08-06T13:11:22;15.73;90.24
35085;SHT85;21267;51.032;6.998;2023-08-06T13:13:52;15.71;89.91
35085;SHT85;21267;51.032;6.998;2023-08-06T13:16:21;15.76;89.98
35085;SHT85;21267;51.032;6.998;2023-08-06T13:19:05;15.78;90.05
35085;SHT85;21267;51.032;6.998;2023-08-06T13:22:02;15.80;89.40
35085;SHT85;21267;51.032;6.998;2023-08-06T13:24:32;15.83;89.85
35085;SHT85;21267;51.032;6.998;2023-08-06T13:27:05;15.84;88.98
35085;SHT85;21267;51.032;6.998;2023-08-06T13:29:33;15.91;89.07
35085;SHT85;21267;51.032;6.998;2023-08-06T13:32:13;15.91;88.48
35085;SHT85;21267;51.032;6.998;2023-08-06T13:34:45;15.97;88.10
35085;SHT85;21267;51.032;6.998;2023-08-06T13:37:26;16.14;88.32
35085;SHT85;21267;51.032;6.998;2023-08-06T13:39:59;16.17;87.95
35085;SHT85;21267;51.032;6.998;2023-08-06T13:42:25;16.20;87.98
35085;SHT85;21267;51.032;6.998;2023-08-06T13:45:00;16.25;88.83
35085;SHT85;21267;51.032;6.998;2023-08-06T13:47:30;16.28;88.41
35085;SHT85;21267;51.032;6.998;2023-08-06T13:49:58;16.21;87.23
35085;SHT85;21267;51.032;6.998;2023-08-06T13:52:28;16.13;88.16
35085;SHT85;21267;51.032;6.998;2023-08-06T13:54:55;16.04;88.55
35085;SHT85;21267;51.032;6.998;2023-08-06T13:57:39;16.07;89.01
35085;SHT85;21267;51.032;6.998;2023-08-06T14:00:17;16.10;88.94
35085;SHT85;21267;51.032;6.998;2023-08-06T14:03:00;16.18;89.25
35085;SHT85;21267;51.032;6.998;2023-08-06T14:05:46;16.22;89.07
35085;SHT85;21267;51.032;6.998;2023-08-06T14:08:16;16.26;89.23
35085;SHT85;21267;51.032;6.998;2023-08-06T14:10:47;16.25;89.12
35085;SHT85;21267;51.032;6.998;2023-08-06T14:13:16;16.24;89.29
35085;SHT85;21267;51.032;6.998;2023-08-06T14:15:50;16.22;89.57
35085;SHT85;21267;51.032;6.998;2023-08-06T14:18:19;16.20;89.84
35085;SHT85;21267;51.032;6.998;2023-08-06T14:20:56;16.20;90.08
35085;SHT85;21267;51.032;6.998;2023-08-06T14:23:42;16.17;90.96
35085;SHT85;21267;51.032;6.998;2023-08-06T14:26:14;16.22;90.87
35085;SHT85;21267;51.032;6.998;2023-08-06T14:28:56;16.24;90.94
35085;SHT85;21267;51.032;6.998;2023-08-06T14:38:43;15.63;91.64
35085;SHT85;21267;51.032;6.998;2023-08-06T14:41:36;15.39;92.75
35085;SHT85;21267;51.032;6.998;2023-08-06T14:44:34;15.19;94.24
35085;SHT85;21267;51.032;6.998;2023-08-06T14:47:03;15.04;95.02
35085;SHT85;21267;51.032;6.998;2023-08-06T14:49:42;14.94;95.37
35085;SHT85;21267;51.032;6.998;2023-08-06T14:52:09;14.96;95.86
35085;SHT85;21267;51.032;6.998;2023-08-06T14:54:36;14.88;96.40
35085;SHT85;21267;51.032;6.998;2023-08-06T14:57:12;14.83;96.69
35085;SHT85;21267;51.032;6.998;2023-08-06T14:59:40;14.89;96.64
35085;SHT85;21267;51.032;6.998;2023-08-06T15:02:22;14.89;96.39
35085;SHT85;21267;51.032;6.998;2023-08-06T15:04:49;14.95;96.22
35085;SHT85;21267;51.032;6.998;2023-08-06T15:07:16;15.02;96.09
35085;SHT85;21267;51.032;6.998;2023-08-06T15:09:57;15.04;95.98
35085;SHT85;21267;51.032;6.998;2023-08-06T15:12:48;15.08;95.89
35085;SHT85;21267;51.032;6.998;2023-08-06T15:15:15;15.14;95.38
35085;SHT85;21267;51.032;6.998;2023-08-06T15:17:41;15.15;95.81
35085;SHT85;21267;51.032;6.998;2023-08-06T15:20:23;15.18;96.06
35085;SHT85;21267;51.032;6.998;2023-08-06T15:22:50;15.12;96.24
35085;SHT85;21267;51.032;6.998;2023-08-06T15:25:24;15.14;96.81
35085;SHT85;21267;51.032;6.998;2023-08-06T15:27:51;15.05;96.89
35085;SHT85;21267;51.032;6.998;2023-08-06T15:30:18;15.05;96.90
35085;SHT85;21267;51.032;6.998;2023-08-06T15:32:57;15.06;96.99
35085;SHT85;21267;51.032;6.998;2023-08-06T15:35:26;15.04;97.16
35085;SHT85;21267;51.032;6.998;2023-08-06T15:38:10;15.02;97.13
35085;SHT85;21267;51.032;6.998;2023-08-06T15:40:37;15.04;96.62
35085;SHT85;21267;51.032;6.998;2023-08-06T15:43:28;15.08;95.99
35085;SHT85;21267;51.032;6.998;2023-08-06T15:45:55;15.11;95.94
35085;SHT85;21267;51.032;6.998;2023-08-06T15:48:30;15.21;95.94
35085;SHT85;21267;51.032;6.998;2023-08-06T15:50:57;15.28;96.22
35085;SHT85;21267;51.032;6.998;2023-08-06T15:53:25;15.33;96.04
35085;SHT85;21267;51.032;6.998;2023-08-06T15:55:54;15.45;95.70
35085;SHT85;21267;51.032;6.998;2023-08-06T15:58:21;15.57;95.27
35085;SHT85;21267;51.032;6.998;2023-08-06T16:00:48;15.62;95.03
35085;SHT85;21267;51.032;6.998;2023-08-06T16:03:15;15.69;94.78
35085;SHT85;21267;51.032;6.998;2023-08-06T16:05:42;15.74;94.42
35085;SHT85;21267;51.032;6.998;2023-08-06T16:08:23;15.80;94.38
35085;SHT85;21267;51.032;6.998;2023-08-06T16:10:50;15.76;94.31
35085;SHT85;21267;51.032;6.998;2023-08-06T16:13:28;15.70;94.41
35085;SHT85;21267;51.032;6.998;2023-08-06T16:15:55;15.70;94.41
35085;SHT85;21267;51.032;6.998;2023-08-06T16:18:21;15.63;94.14
35085;SHT85;21267;51.032;6.998;2023-08-06T16:20:58;15.64;94.56